createdAt,value
2023-04-28T00:01:28.910Z,94173.94
2023-04-28T00:03:57.043Z,94178.63
2023-04-28T00:06:23.948Z,94165.25
2023-04-28T00:08:50.618Z,94156.44
2023-04-28T00:11:17.572Z,94151.88
2023-04-28T00:13:44.211Z,94150.88
2023-04-28T00:16:11.032Z,94140.31
2023-04-28T00:18:37.694Z,94128.00
2023-04-28T00:21:04.765Z,94127.44
2023-04-28T00:23:31.397Z,94132.06
2023-04-28T00:25:58.102Z,94115.53
2023-04-28T00:30:54.425Z,94103.66
2023-04-28T00:33:21.179Z,94100.00
2023-04-28T00:35:47.831Z,94098.09
2023-04-28T00:38:14.477Z,94115.47
2023-04-28T00:40:41.137Z,94120.84
2023-04-28T00:43:07.851Z,94113.66
2023-04-28T00:45:34.826Z,94108.81
2023-04-28T00:48:02.533Z,94112.59
2023-04-28T00:50:29.307Z,94116.78
2023-04-28T00:52:56.146Z,94103.75
2023-04-28T00:55:24.880Z,94097.41
2023-04-28T00:57:51.705Z,94100.63
2023-04-28T01:00:18.384Z,94094.09
2023-04-28T01:02:45.153Z,94104.03
2023-04-28T01:05:13.944Z,94092.69
2023-04-28T01:07:40.888Z,94102.69
2023-04-28T01:10:09.533Z,94099.38
2023-04-28T01:12:36.885Z,94093.31
2023-04-28T01:15:03.993Z,94098.50
2023-04-28T01:17:31.672Z,94091.69
2023-04-28T01:19:59.263Z,94088.25
2023-04-28T01:22:25.979Z,94083.47
2023-04-28T01:24:52.701Z,94073.09
2023-04-28T01:27:19.322Z,94062.75
2023-04-28T01:29:46.143Z,94056.06
2023-04-28T01:32:13.070Z,94049.84
2023-04-28T01:34:39.806Z,94065.44
2023-04-28T01:37:06.800Z,94051.19
2023-04-28T01:39:33.511Z,94071.84
2023-04-28T01:42:00.500Z,94054.09
2023-04-28T01:44:27.267Z,94043.72
2023-04-28T01:46:53.965Z,94065.41
2023-04-28T01:49:21.902Z,94075.00
2023-04-28T01:51:48.560Z,94061.22
2023-04-28T01:54:15.446Z,94069.38
2023-04-28T01:56:42.978Z,94070.28
2023-04-28T01:59:11.598Z,94054.97
2023-04-28T02:01:38.287Z,94062.78
2023-04-28T02:04:05.627Z,94077.88
2023-04-28T02:06:35.159Z,94075.00
2023-04-28T02:09:01.845Z,94076.88
2023-04-28T02:11:28.610Z,94072.97
2023-04-28T02:13:56.943Z,94069.19
2023-04-28T02:16:23.930Z,94073.28
2023-04-28T02:18:51.059Z,94074.53
2023-04-28T02:21:17.713Z,94076.56
2023-04-28T02:23:45.173Z,94069.78
2023-04-28T02:26:11.975Z,94077.72
2023-04-28T02:28:38.580Z,94065.75
2023-04-28T02:31:10.952Z,94063.63
2023-04-28T02:33:38.511Z,94060.38
2023-04-28T02:36:06.761Z,94068.41
2023-04-28T02:38:33.622Z,94064.16
2023-04-28T02:41:02.151Z,94060.81
2023-04-28T02:43:29.082Z,94051.28
2023-04-28T02:45:55.896Z,94046.72
2023-04-28T02:48:23.350Z,94034.72
2023-04-28T02:50:50.780Z,94035.88
2023-04-28T02:53:17.543Z,94032.88
2023-04-28T02:55:44.381Z,94028.22
2023-04-28T02:58:11.093Z,94033.09
2023-04-28T03:00:37.837Z,94037.44
2023-04-28T03:03:04.643Z,94029.88
2023-04-28T03:05:31.431Z,94021.94
2023-04-28T03:07:58.069Z,94025.06
2023-04-28T03:10:24.874Z,94032.19
2023-04-28T03:12:51.603Z,94023.50
2023-04-28T03:15:18.331Z,94006.22
2023-04-28T03:17:45.728Z,94008.75
2023-04-28T03:20:13.032Z,94020.09
2023-04-28T03:22:40.005Z,94013.69
2023-04-28T03:25:07.668Z,94024.34
2023-04-28T03:27:40.761Z,94027.19
2023-04-28T03:30:08.047Z,94021.13
2023-04-28T03:32:34.825Z,94019.44
2023-04-28T03:35:01.832Z,94016.16
2023-04-28T03:37:28.684Z,94017.09
2023-04-28T03:39:55.649Z,94028.88
2023-04-28T03:42:22.332Z,94025.28
2023-04-28T03:45:08.020Z,94029.22
2023-04-28T03:47:35.251Z,94017.72
2023-04-28T03:50:01.973Z,94026.84
2023-04-28T03:52:29.059Z,94018.13
2023-04-28T03:54:55.930Z,94019.88
2023-04-28T03:57:23.200Z,94023.00
2023-04-28T03:59:51.340Z,94021.44
2023-04-28T04:02:18.078Z,94020.84
2023-04-28T04:04:45.497Z,94020.34
2023-04-28T04:07:12.376Z,94024.13
2023-04-28T04:09:40.165Z,94015.16
2023-04-28T04:12:07.862Z,94010.47
2023-04-28T04:14:34.798Z,94003.50
2023-04-28T04:17:01.661Z,93990.06
2023-04-28T04:19:28.435Z,94007.34
2023-04-28T04:21:56.671Z,94001.34
2023-04-28T04:24:23.532Z,93998.34
2023-04-28T04:26:50.246Z,93983.31
2023-04-28T04:29:31.900Z,93989.59
2023-04-28T04:32:00.780Z,94001.88
2023-04-28T04:34:27.670Z,93988.75
2023-04-28T04:36:54.886Z,94002.59
2023-04-28T04:39:22.355Z,94006.19
2023-04-28T04:41:49.027Z,93996.91
2023-04-28T04:44:32.058Z,94020.66
2023-04-28T04:47:00.435Z,94012.16
2023-04-28T04:49:27.183Z,93993.44
2023-04-28T04:51:56.664Z,94002.91
2023-04-28T04:54:24.451Z,94008.72
2023-04-28T04:56:52.513Z,94001.94
2023-04-28T04:59:30.799Z,94004.94
2023-04-28T05:02:07.100Z,93998.00
2023-04-28T05:04:34.029Z,94001.47
2023-04-28T05:07:01.403Z,93993.59
2023-04-28T05:09:32.080Z,93991.25
2023-04-28T05:11:59.956Z,93985.09
2023-04-28T05:14:26.818Z,93984.81
2023-04-28T05:16:53.947Z,93983.88
2023-04-28T05:19:26.244Z,93987.63
2023-04-28T05:21:54.843Z,93987.19
2023-04-28T05:24:25.286Z,93978.38
2023-04-28T05:26:52.835Z,93979.94
2023-04-28T05:29:21.806Z,93977.56
2023-04-28T05:31:48.627Z,93981.31
2023-04-28T05:34:15.988Z,93981.47
2023-04-28T05:36:43.225Z,93982.34
2023-04-28T05:39:11.955Z,93983.59
2023-04-28T05:41:40.148Z,93992.03
2023-04-28T05:44:06.817Z,93999.59
2023-04-28T05:46:34.078Z,93992.22
2023-04-28T05:49:01.147Z,93978.13
2023-04-28T05:51:33.790Z,93989.88
2023-04-28T05:54:01.761Z,94000.75
2023-04-28T05:56:29.448Z,93990.38
2023-04-28T05:58:58.621Z,94001.78
2023-04-28T06:01:25.715Z,94008.00
2023-04-28T06:03:54.050Z,93997.53
2023-04-28T06:06:21.874Z,93986.22
2023-04-28T06:08:48.762Z,93983.56
2023-04-28T06:11:15.498Z,93967.31
2023-04-28T06:13:42.339Z,93964.81
2023-04-28T06:16:09.110Z,93968.09
2023-04-28T06:18:37.035Z,93974.00
2023-04-28T06:21:04.438Z,93985.50
2023-04-28T06:23:31.362Z,93987.06
2023-04-28T06:25:58.484Z,93991.63
2023-04-28T06:28:25.158Z,93979.38
2023-04-28T06:30:53.411Z,93976.03
2023-04-28T06:33:20.101Z,93978.06
2023-04-28T06:35:47.041Z,93978.53
2023-04-28T06:38:15.483Z,93972.22
2023-04-28T06:40:42.173Z,93975.44
2023-04-28T06:43:09.118Z,93977.94
2023-04-28T06:45:41.826Z,93978.22
2023-04-28T06:48:08.854Z,93976.13
2023-04-28T06:50:38.557Z,93976.91
2023-04-28T06:53:07.689Z,93974.22
2023-04-28T06:55:34.688Z,93977.38
2023-04-28T06:58:01.533Z,93958.28
2023-04-28T07:00:28.319Z,93959.97
2023-04-28T07:02:55.251Z,93944.56
2023-04-28T07:05:22.157Z,93957.28
2023-04-28T07:07:48.824Z,93953.50
2023-04-28T07:10:16.244Z,93950.50
2023-04-28T07:12:42.887Z,93945.75
2023-04-28T07:15:10.432Z,93945.28
2023-04-28T07:17:38.108Z,93935.25
2023-04-28T07:20:05.989Z,93932.38
2023-04-28T07:22:32.922Z,93945.53
2023-04-28T07:24:59.542Z,93933.28
2023-04-28T07:27:26.388Z,93950.81
2023-04-28T07:29:53.059Z,93951.72
2023-04-28T07:32:19.861Z,93939.69
2023-04-28T07:34:46.614Z,93940.94
2023-04-28T07:37:13.467Z,93932.75
2023-04-28T07:39:41.716Z,93942.59
2023-04-28T07:42:08.517Z,93943.81
2023-04-28T07:44:35.599Z,93940.94
2023-04-28T07:47:03.043Z,93927.09
2023-04-28T07:49:30.211Z,93935.81
2023-04-28T07:51:57.329Z,93928.91
2023-04-28T07:54:24.399Z,93926.56
2023-04-28T07:56:51.461Z,93932.38
2023-04-28T07:59:18.170Z,93921.53
2023-04-28T08:01:44.928Z,93925.91
2023-04-28T08:04:12.111Z,93922.66
2023-04-28T08:06:40.188Z,93917.41
2023-04-28T08:09:06.935Z,93910.72
2023-04-28T08:11:34.656Z,93910.97
2023-04-28T08:14:03.072Z,93918.75
2023-04-28T08:16:31.187Z,93914.97
2023-04-28T08:18:59.111Z,93922.47
2023-04-28T08:21:27.023Z,93907.94
2023-04-28T08:23:53.931Z,93897.34
2023-04-28T08:26:20.688Z,93906.03
2023-04-28T08:28:47.448Z,93891.41
2023-04-28T08:31:14.178Z,93887.25
2023-04-28T08:33:44.434Z,93910.94
2023-04-28T08:36:15.029Z,93904.34
2023-04-28T08:38:42.209Z,93906.81
2023-04-28T08:41:08.950Z,93905.81
2023-04-28T08:43:36.469Z,93891.41
2023-04-28T08:46:08.156Z,93906.81
2023-04-28T08:48:41.670Z,93911.41
2023-04-28T08:51:09.018Z,93908.81
2023-04-28T08:53:59.209Z,93924.03
2023-04-28T08:56:27.967Z,93924.56
2023-04-28T08:58:55.266Z,93936.31
2023-04-28T09:01:21.992Z,93936.09
2023-04-28T09:03:49.518Z,93948.81
2023-04-28T09:06:16.402Z,93929.84
2023-04-28T09:08:43.044Z,93946.69
2023-04-28T09:11:11.180Z,93946.56
2023-04-28T09:13:37.990Z,93934.72
2023-04-28T09:16:05.171Z,93934.03
2023-04-28T09:18:33.194Z,93942.53
2023-04-28T09:21:07.334Z,93959.72
2023-04-28T09:23:35.243Z,93962.84
2023-04-28T09:26:07.782Z,93970.22
2023-04-28T09:28:36.100Z,93967.53
2023-04-28T09:31:04.169Z,93967.75
2023-04-28T09:33:31.420Z,93952.09
2023-04-28T09:35:58.120Z,93958.69
2023-04-28T09:38:25.315Z,93954.97
2023-04-28T09:41:00.229Z,93964.78
2023-04-28T09:43:28.356Z,93972.16
2023-04-28T09:45:56.822Z,93974.50
2023-04-28T09:48:34.510Z,93967.34
2023-04-28T09:51:03.727Z,93956.84
2023-04-28T09:53:30.926Z,93959.97
2023-04-28T09:55:59.870Z,93958.75
2023-04-28T09:58:28.467Z,93957.72
2023-04-28T10:01:00.015Z,93957.63
2023-04-28T10:03:29.909Z,93966.66
2023-04-28T10:05:58.714Z,93954.03
2023-04-28T10:08:27.348Z,93961.78
2023-04-28T10:10:54.781Z,93958.41
2023-04-28T10:13:22.778Z,93941.50
2023-04-28T10:15:51.551Z,93952.88
2023-04-28T10:18:18.831Z,93953.59
2023-04-28T10:20:53.435Z,93964.38
2023-04-28T10:23:35.479Z,93967.25
2023-04-28T10:26:03.996Z,93966.28
2023-04-28T10:28:30.699Z,93963.94
2023-04-28T10:31:17.797Z,93972.91
2023-04-28T10:33:44.759Z,93968.41
2023-04-28T10:36:36.359Z,93963.28
2023-04-28T10:39:12.258Z,93952.09
2023-04-28T10:41:39.117Z,93955.97
2023-04-28T10:44:30.642Z,93949.63
2023-04-28T10:47:04.804Z,93946.16
2023-04-28T10:49:54.690Z,93950.31
2023-04-28T10:52:33.496Z,93956.16
2023-04-28T10:55:36.781Z,93943.38
2023-04-28T10:58:15.988Z,93952.84
2023-04-28T11:00:47.881Z,93949.72
2023-04-28T11:03:54.211Z,93956.16
2023-04-28T11:06:28.647Z,93952.41
2023-04-28T11:09:12.318Z,93950.81
2023-04-28T11:11:40.098Z,93946.19
2023-04-28T11:14:19.095Z,93953.00
2023-04-28T11:17:03.107Z,93948.69
2023-04-28T11:19:35.829Z,93951.28
2023-04-28T11:22:04.476Z,93960.91
2023-04-28T11:24:32.418Z,93956.34
2023-04-28T11:27:00.119Z,93955.94
2023-04-28T11:29:42.799Z,93960.78
2023-04-28T11:32:10.974Z,93952.19
2023-04-28T11:34:38.140Z,93967.59
2023-04-28T11:37:07.199Z,93949.72
2023-04-28T11:39:34.684Z,93959.59
2023-04-28T11:42:09.418Z,93971.88
2023-04-28T11:44:36.072Z,93952.44
2023-04-28T11:47:04.275Z,93970.59
2023-04-28T11:49:41.505Z,93949.44
2023-04-28T11:52:09.894Z,93961.28
2023-04-28T11:54:37.364Z,93968.06
2023-04-28T11:57:05.193Z,93960.38
2023-04-28T11:59:34.277Z,93952.97
2023-04-28T12:02:07.859Z,93965.81
2023-04-28T12:04:38.704Z,93959.63
2023-04-28T12:07:16.593Z,93960.59
2023-04-28T12:10:09.689Z,93967.41
2023-04-28T12:12:49.021Z,93962.53
2023-04-28T12:15:20.489Z,93967.44
2023-04-28T12:17:48.511Z,93968.06
2023-04-28T12:20:42.717Z,93965.06
2023-04-28T12:23:09.431Z,93960.00
2023-04-28T12:25:46.171Z,93971.59
2023-04-28T12:28:12.904Z,93971.59
2023-04-28T12:30:42.160Z,93952.25
2023-04-28T12:33:25.639Z,93965.41
2023-04-28T12:35:56.731Z,93965.41
2023-04-28T12:38:24.086Z,93955.47
2023-04-28T12:40:51.066Z,93943.25
2023-04-28T12:43:17.741Z,93956.44
2023-04-28T12:45:44.461Z,93961.75
2023-04-28T12:48:11.451Z,93964.44
2023-04-28T12:50:38.227Z,93964.97
2023-04-28T12:53:05.209Z,93960.88
2023-04-28T12:55:32.034Z,93962.44
2023-04-28T12:57:59.501Z,93953.94
2023-04-28T13:00:26.470Z,93965.97
2023-04-28T13:02:53.433Z,93952.88
2023-04-28T13:05:20.266Z,93955.38
2023-04-28T13:07:47.538Z,93953.03
2023-04-28T13:10:14.307Z,93960.72
2023-04-28T13:12:42.512Z,93968.41
2023-04-28T13:15:09.744Z,93963.69
2023-04-28T13:17:37.076Z,93969.41
2023-04-28T13:20:05.249Z,93965.50
2023-04-28T13:22:32.020Z,93968.91
2023-04-28T13:24:59.080Z,93969.19
2023-04-28T13:27:25.966Z,93969.72
2023-04-28T13:29:52.778Z,93971.78
2023-04-28T13:32:19.483Z,93970.38
2023-04-28T13:34:46.737Z,93961.78
2023-04-28T13:37:13.838Z,93961.47
2023-04-28T13:39:40.619Z,93967.31
2023-04-28T13:42:07.323Z,93964.19
2023-04-28T13:44:33.960Z,93966.09
2023-04-28T13:47:00.948Z,93963.50
2023-04-28T13:49:28.111Z,93965.78
2023-04-28T13:51:54.811Z,93964.19
2023-04-28T13:54:21.980Z,93964.91
2023-04-28T13:56:48.735Z,93960.16
2023-04-28T13:59:15.420Z,93970.75
2023-04-28T14:01:42.171Z,93964.22
2023-04-28T14:04:09.098Z,93962.69
2023-04-28T14:06:37.241Z,93956.72
2023-04-28T14:09:04.116Z,93965.88
2023-04-28T14:11:30.851Z,93971.16
2023-04-28T14:13:57.450Z,93953.63
2023-04-28T14:16:24.193Z,93929.38
2023-04-28T14:18:51.844Z,93963.56
2023-04-28T14:21:18.564Z,93954.69
2023-04-28T14:23:45.193Z,93941.56
2023-04-28T14:26:11.847Z,93943.06
2023-04-28T14:28:38.762Z,93946.19
2023-04-28T14:31:08.991Z,93941.84
2023-04-28T14:33:36.045Z,93952.25
2023-04-28T14:36:02.819Z,93954.63
2023-04-28T14:38:30.697Z,93934.34
2023-04-28T14:40:57.720Z,93924.13
2023-04-28T14:43:24.869Z,93912.63
2023-04-28T14:45:51.978Z,93924.09
2023-04-28T14:48:19.180Z,93908.88
2023-04-28T14:50:46.234Z,93897.19
2023-04-28T14:53:12.938Z,93898.13
2023-04-28T14:55:39.660Z,93901.84
2023-04-28T14:58:06.324Z,93902.53
2023-04-28T15:00:33.352Z,93905.72
2023-04-28T15:03:00.147Z,93905.84
2023-04-28T15:05:27.321Z,93900.09
2023-04-28T15:07:53.956Z,93914.25
2023-04-28T15:10:20.688Z,93913.41
2023-04-28T15:12:48.704Z,93903.28
2023-04-28T15:15:15.387Z,93910.59
2023-04-28T15:17:42.082Z,93889.31
2023-04-28T15:20:09.250Z,93884.84
2023-04-28T15:22:36.647Z,93866.00
2023-04-28T15:25:03.459Z,93872.66
2023-04-28T15:27:30.199Z,93875.34
2023-04-28T15:29:57.503Z,93877.31
2023-04-28T15:32:24.293Z,93874.75
2023-04-28T15:34:51.370Z,93882.31
2023-04-28T15:37:39.429Z,93891.25
2023-04-28T15:40:06.996Z,93886.34
2023-04-28T15:42:34.126Z,93886.41
2023-04-28T15:45:02.528Z,93887.91
2023-04-28T15:47:29.431Z,93866.31
2023-04-28T15:49:56.124Z,93878.38
2023-04-28T15:52:22.953Z,93891.09
2023-04-28T15:54:49.895Z,93891.81
2023-04-28T15:57:16.673Z,93868.59
2023-04-28T15:59:43.329Z,93873.31
2023-04-28T16:02:10.012Z,93869.84
2023-04-28T16:04:37.185Z,93885.19
2023-04-28T16:07:04.427Z,93900.56
2023-04-28T16:09:31.662Z,93909.00
2023-04-28T16:11:59.597Z,93903.91
2023-04-28T16:14:27.126Z,93900.38
2023-04-28T16:16:54.037Z,93889.09
2023-04-28T16:19:21.766Z,93888.16
2023-04-28T16:21:48.564Z,93881.94
2023-04-28T16:24:15.222Z,93882.28
2023-04-28T16:26:42.035Z,93897.28
2023-04-28T16:29:08.808Z,93886.44
2023-04-28T16:31:35.933Z,93868.16
2023-04-28T16:34:02.528Z,93879.47
2023-04-28T16:36:35.009Z,93874.13
2023-04-28T16:39:01.738Z,93880.44
2023-04-28T16:41:28.402Z,93865.28
2023-04-28T16:43:56.191Z,93872.69
2023-04-28T16:46:22.924Z,93878.47
2023-04-28T16:48:49.682Z,93875.75
2023-04-28T16:51:16.423Z,93881.16
2023-04-28T16:53:43.148Z,93876.97
2023-04-28T16:56:10.682Z,93856.47
2023-04-28T16:58:37.957Z,93866.94
2023-04-28T17:01:04.761Z,93862.03
2023-04-28T17:03:31.622Z,93855.31
2023-04-28T17:05:59.667Z,93868.88
2023-04-28T17:08:26.849Z,93874.19
2023-04-28T17:10:53.567Z,93876.25
2023-04-28T17:13:20.241Z,93886.63
2023-04-28T17:15:54.218Z,93895.72
2023-04-28T17:18:21.125Z,93900.66
2023-04-28T17:20:48.218Z,93905.22
2023-04-28T17:23:15.237Z,93896.28
2023-04-28T17:25:42.114Z,93902.16
2023-04-28T17:28:08.768Z,93897.47
2023-04-28T17:30:35.791Z,93894.78
2023-04-28T17:33:02.866Z,93897.84
2023-04-28T17:35:29.607Z,93893.94
2023-04-28T17:37:56.780Z,93878.34
2023-04-28T17:40:24.262Z,93882.88
2023-04-28T17:42:51.521Z,93872.97
2023-04-28T17:45:18.304Z,93876.31
2023-04-28T17:47:44.986Z,93882.06
2023-04-28T17:50:11.661Z,93897.22
2023-04-28T17:52:38.960Z,93891.06
2023-04-28T17:55:06.150Z,93897.63
2023-04-28T17:57:32.904Z,93891.28
2023-04-28T17:59:59.557Z,93904.91
2023-04-28T18:02:26.350Z,93882.78
2023-04-28T18:04:53.535Z,93893.50
2023-04-28T18:07:20.410Z,93901.66
2023-04-28T18:09:47.059Z,93906.31
2023-04-28T18:12:13.710Z,93908.25
2023-04-28T18:14:44.190Z,93909.81
2023-04-28T18:17:11.219Z,93920.66
2023-04-28T18:19:37.836Z,93916.47
2023-04-28T18:22:04.549Z,93909.09
2023-04-28T18:24:31.232Z,93920.31
2023-04-28T18:26:57.878Z,93921.97
2023-04-28T18:29:24.714Z,93920.34
2023-04-28T18:31:51.633Z,93929.00
2023-04-28T18:34:18.479Z,93925.03
2023-04-28T18:36:45.197Z,93933.53
2023-04-28T18:39:12.631Z,93933.09
2023-04-28T18:41:40.217Z,93938.81
2023-04-28T18:44:06.946Z,93937.13
2023-04-28T18:46:34.122Z,93942.34
2023-04-28T18:49:03.027Z,93943.50
2023-04-28T18:51:29.760Z,93941.94
2023-04-28T18:53:56.405Z,93938.03
2023-04-28T18:56:24.527Z,93946.06
2023-04-28T18:58:51.379Z,93945.53
2023-04-28T19:01:18.434Z,93962.59
2023-04-28T19:03:45.434Z,93950.84
2023-04-28T19:06:12.841Z,93954.75
2023-04-28T19:08:39.478Z,93959.22
2023-04-28T19:11:07.490Z,93949.44
2023-04-28T19:13:34.700Z,93947.56
2023-04-28T19:16:01.334Z,93959.63
2023-04-28T19:18:28.734Z,93962.44
2023-04-28T19:21:00.744Z,93965.66
2023-04-28T19:23:27.571Z,93978.25
2023-04-28T19:25:58.412Z,93978.94
2023-04-28T19:28:26.344Z,93994.66
2023-04-28T19:30:54.143Z,93991.19
2023-04-28T19:33:21.069Z,93988.09
2023-04-28T19:35:47.791Z,93986.88
2023-04-28T19:38:16.881Z,93984.09
2023-04-28T19:40:44.021Z,93992.50
2023-04-28T19:43:11.662Z,93993.28
2023-04-28T19:45:38.581Z,93990.00
2023-04-28T19:48:05.573Z,93996.66
2023-04-28T19:50:32.449Z,94000.94
2023-04-28T19:52:59.201Z,94001.72
2023-04-28T19:55:25.895Z,94007.09
2023-04-28T19:57:53.630Z,94005.09
2023-04-28T20:00:21.691Z,94004.31
2023-04-28T20:02:48.520Z,94015.69
2023-04-28T20:05:15.379Z,94020.00
2023-04-28T20:07:42.096Z,94020.00
2023-04-28T20:10:09.420Z,94012.72
2023-04-28T20:12:36.093Z,94009.53
2023-04-28T20:15:02.770Z,94006.41
2023-04-28T20:17:29.426Z,94010.66
2023-04-28T20:19:56.389Z,94008.41
2023-04-28T20:22:24.395Z,94004.50
2023-04-28T20:24:51.227Z,94008.66
2023-04-28T20:27:17.953Z,94004.41
2023-04-28T20:29:46.388Z,94010.91
2023-04-28T20:32:13.119Z,94013.25
2023-04-28T20:34:41.362Z,94009.78
2023-04-28T20:37:08.273Z,94008.22
2023-04-28T20:39:34.908Z,94009.44
2023-04-28T20:42:02.697Z,94017.16
2023-04-28T20:44:29.356Z,94009.88
2023-04-28T20:46:56.140Z,94005.63
2023-04-28T20:49:22.846Z,93998.66
2023-04-28T20:51:49.712Z,94002.94
2023-04-28T20:54:16.451Z,93992.50
2023-04-28T20:56:43.272Z,93993.19
2023-04-28T20:59:09.891Z,93989.28
2023-04-28T21:01:36.597Z,93999.72
2023-04-28T21:04:03.372Z,93982.25
2023-04-28T21:06:30.173Z,93997.47
2023-04-28T21:08:56.848Z,93998.06
2023-04-28T21:11:23.753Z,93998.31
2023-04-28T21:13:50.443Z,94001.69
2023-04-28T21:16:20.825Z,94003.94
2023-04-28T21:18:49.150Z,94009.41
2023-04-28T21:21:16.163Z,94007.84
2023-04-28T21:23:43.242Z,94000.91
2023-04-28T21:26:10.214Z,94004.66
2023-04-28T21:28:37.253Z,93997.03
2023-04-28T21:31:04.946Z,94002.47
2023-04-28T21:33:32.451Z,94007.94
2023-04-28T21:36:03.650Z,94008.28
2023-04-28T21:38:30.286Z,94006.22
2023-04-28T21:40:56.925Z,94001.97
2023-04-28T21:43:24.159Z,94001.53
2023-04-28T21:45:52.255Z,93996.16
2023-04-28T21:48:19.087Z,93997.38
2023-04-28T21:50:46.028Z,93993.91
2023-04-28T21:53:12.701Z,93999.97
2023-04-28T21:55:39.994Z,93998.84
2023-04-28T21:58:07.041Z,93992.34
2023-04-28T22:00:43.400Z,93999.28
2023-04-28T22:03:11.174Z,93997.38
2023-04-28T22:05:40.419Z,93997.38
2023-04-28T22:08:07.445Z,93990.44
2023-04-28T22:10:35.117Z,93984.63
2023-04-28T22:13:01.972Z,93987.31
2023-04-28T22:15:28.931Z,93993.13
2023-04-28T22:17:55.674Z,93991.22
2023-04-28T22:20:22.406Z,93983.22
2023-04-28T22:22:49.168Z,93972.91
2023-04-28T22:25:15.999Z,93974.03
2023-04-28T22:27:42.978Z,93990.25
2023-04-28T22:30:10.117Z,93992.50
2023-04-28T22:32:37.061Z,93979.84
2023-04-28T22:35:03.911Z,93986.34
2023-04-28T22:37:30.934Z,93985.56
2023-04-28T22:39:57.781Z,93984.78
2023-04-28T22:42:24.581Z,93980.19
2023-04-28T22:44:51.196Z,93980.13
2023-04-28T22:47:18.373Z,93977.00
2023-04-28T22:49:45.279Z,93969.19
2023-04-28T22:52:12.200Z,93971.00
2023-04-28T22:54:38.840Z,93971.91
2023-04-28T22:57:05.518Z,93965.56
2023-04-28T22:59:33.442Z,93963.91
2023-04-28T23:02:00.481Z,93961.47
2023-04-28T23:04:27.492Z,93961.03
2023-04-28T23:06:54.265Z,93959.03
2023-04-28T23:09:21.478Z,93964.78
2023-04-28T23:11:48.276Z,93960.53
2023-04-28T23:14:14.895Z,93959.66
2023-04-28T23:16:41.886Z,93960.59
2023-04-28T23:19:08.826Z,93961.94
2023-04-28T23:21:35.651Z,93954.16
2023-04-28T23:24:02.347Z,93961.34
2023-04-28T23:26:29.027Z,93955.97
2023-04-28T23:28:55.642Z,93963.91
2023-04-28T23:31:22.350Z,93962.25
2023-04-28T23:33:48.979Z,93963.28
2023-04-28T23:36:15.865Z,93966.66
2023-04-28T23:38:42.502Z,93965.00
2023-04-28T23:41:09.198Z,93963.00
2023-04-28T23:43:36.236Z,93963.78
2023-04-28T23:46:03.005Z,93960.06
2023-04-28T23:48:29.680Z,93952.13
2023-04-28T23:50:56.675Z,93944.06
2023-04-28T23:53:23.348Z,93942.50
2023-04-28T23:55:50.454Z,93943.69
2023-04-28T23:58:17.400Z,93939.53
